Time;durP1;ratioP1;P1;durP2;ratioP2;P2;SDS_P1;SDS_P2;PMS_P1;PMS_P2;Temp;Humidity;BMP_temperature;BMP_pressure;BME280_temperature;BME280_humidity;BME280_pressure;Samples;Min_cycle;Max_cycle;Signal;HPM_P1;HPM_P2
2020/12/07 00:01:53;;;;;;;14.70;6.83;;;;;;;-7.01;60.54;102841.29;1759742;80;21920;-79
2020/12/07 00:04:22;;;;;;;13.88;6.20;;;;;;;-7.09;60.50;102829.05;1751042;79;21596;-78
2020/12/07 00:06:53;;;;;;;19.17;8.83;;;;;;;-7.16;60.73;102828.30;1757236;78;20957;-81
2020/12/07 00:09:21;;;;;;;17.05;8.50;;;;;;;-7.24;61.00;102819.39;1764598;79;21047;-81
2020/12/07 00:11:51;;;;;;;16.45;8.03;;;;;;;-7.23;60.96;102816.43;1756882;80;21036;-79
2020/12/07 00:14:20;;;;;;;14.80;7.60;;;;;;;-7.20;60.88;102816.56;1748442;80;21107;-80
2020/12/07 00:16:48;;;;;;;14.05;7.00;;;;;;;-7.23;61.01;102817.30;1748532;80;20981;-80
2020/12/07 00:19:16;;;;;;;14.13;7.22;;;;;;;-7.26;60.84;102811.20;1751057;79;20949;-80
2020/12/07 00:21:45;;;;;;;16.00;8.50;;;;;;;-7.28;60.95;102810.25;1757755;80;21017;-79
2020/12/07 00:24:12;;;;;;;12.33;6.65;;;;;;;-7.31;61.05;102806.75;1748838;80;21032;-81
2020/12/07 00:26:44;;;;;;;12.90;7.05;;;;;;;-7.31;61.04;102822.45;1748618;80;21115;-79
2020/12/07 00:29:12;;;;;;;15.98;7.85;;;;;;;-7.31;61.04;102808.43;1763908;80;21513;-80
2020/12/07 00:31:40;;;;;;;16.27;7.90;;;;;;;-7.35;60.97;102804.84;1780723;79;21372;-78
2020/12/07 00:34:08;;;;;;;14.65;6.53;;;;;;;-7.35;61.01;102798.88;1767395;79;20957;-77
2020/12/07 00:36:36;;;;;;;16.42;8.00;;;;;;;-7.38;61.03;102788.14;1764417;78;20929;-79
2020/12/07 00:39:04;;;;;;;24.27;9.95;;;;;;;-7.40;61.13;102795.21;1755172;78;21169;-79
2020/12/07 00:41:33;;;;;;;22.37;8.40;;;;;;;-7.45;61.30;102784.80;1752225;80;21016;-79
2020/12/07 00:44:03;;;;;;;19.15;9.65;;;;;;;-7.45;61.44;102778.42;1748783;80;21045;-79
2020/12/07 00:46:35;;;;;;;24.50;9.40;;;;;;;-7.45;61.31;102771.19;1714684;81;20926;-78
2020/12/07 00:49:04;;;;;;;20.40;9.05;;;;;;;-7.47;61.39;102766.41;1728682;82;21003;-78
2020/12/07 00:51:32;;;;;;;17.77;8.08;;;;;;;-7.46;61.49;102774.14;1715325;81;21255;-78
2020/12/07 00:54:01;;;;;;;18.65;9.85;;;;;;;-7.44;61.49;102777.64;1693752;82;20999;-77
2020/12/07 00:56:29;;;;;;;13.15;6.50;;;;;;;-7.42;61.41;102780.28;1742337;81;20965;-79
2020/12/07 00:58:59;;;;;;;14.35;6.72;;;;;;;-7.44;61.48;102782.73;1717788;82;20997;-77
2020/12/07 01:01:27;;;;;;;15.00;7.12;;;;;;;-7.48;61.52;102774.47;1737539;80;20954;-78
2020/12/07 01:03:56;;;;;;;17.57;7.08;;;;;;;-7.50;61.46;102770.97;1720928;81;21262;-78
2020/12/07 01:06:32;;;;;;;19.50;8.83;;;;;;;-7.49;61.53;102765.09;1734918;81;21040;-78
2020/12/07 01:09:01;;;;;;;13.28;6.33;;;;;;;-7.46;61.68;102761.41;1717625;82;20920;-77
2020/12/07 01:11:28;;;;;;;14.83;6.83;;;;;;;-7.42;61.60;102764.98;1736986;80;21014;-76
2020/12/07 01:13:58;;;;;;;18.23;8.35;;;;;;;-7.42;61.74;102756.06;1739372;81;20935;-77
2020/12/07 01:16:27;;;;;;;18.85;7.30;;;;;;;-7.43;61.74;102746.25;1743370;79;21168;-76
2020/12/07 01:18:56;;;;;;;16.87;6.75;;;;;;;-7.44;61.58;102758.94;1728225;82;21049;-77
2020/12/07 01:21:25;;;;;;;17.40;7.35;;;;;;;-7.50;61.82;102758.23;1750056;80;21010;-77
2020/12/07 01:23:54;;;;;;;17.25;7.92;;;;;;;-7.56;61.78;102741.36;1732127;81;21089;-79
2020/12/07 01:26:22;;;;;;;13.72;6.62;;;;;;;-7.57;61.92;102739.63;1744448;80;20941;-78
2020/12/07 01:28:51;;;;;;;11.55;6.62;;;;;;;-7.56;62.07;102740.09;1734154;81;21170;-79
2020/12/07 01:31:19;;;;;;;17.70;6.58;;;;;;;-7.56;62.22;102756.27;1737184;81;20974;-76
2020/12/07 01:33:47;;;;;;;13.65;7.12;;;;;;;-7.56;62.18;102755.00;1727641;81;21112;-76
2020/12/07 01:36:17;;;;;;;13.90;6.67;;;;;;;-7.58;62.26;102751.87;1730409;80;21057;-78
2020/12/07 01:38:45;;;;;;;15.10;7.42;;;;;;;-7.63;62.50;102755.87;1761547;80;21054;-75
2020/12/07 01:41:13;;;;;;;12.85;5.83;;;;;;;-7.67;62.70;102758.66;1748825;80;21182;-79
2020/12/07 01:43:42;;;;;;;14.05;7.22;;;;;;;-7.69;62.88;102759.39;1726069;81;20946;-78
2020/12/07 01:46:10;;;;;;;12.23;6.97;;;;;;;-7.73;63.10;102757.98;1742825;80;21020;-76
2020/12/07 01:48:38;;;;;;;10.20;5.85;;;;;;;-7.72;63.08;102759.71;1740419;80;20971;-80
2020/12/07 01:51:08;;;;;;;16.25;6.50;;;;;;;-7.68;63.09;102767.52;1745523;81;20921;-80
2020/12/07 01:53:37;;;;;;;14.90;6.90;;;;;;;-7.70;63.18;102745.80;1734010;80;21013;-80
2020/12/07 01:56:05;;;;;;;11.45;6.42;;;;;;;-7.73;63.26;102749.06;1741622;81;21011;-80
2020/12/07 01:58:34;;;;;;;10.63;6.42;;;;;;;-7.74;63.42;102751.13;1741691;81;21031;-79
2020/12/07 02:01:03;;;;;;;11.60;7.50;;;;;;;-7.73;63.55;102750.75;1745453;81;21398;-79
2020/12/07 02:03:31;;;;;;;13.35;7.00;;;;;;;-7.71;63.51;102756.80;1728954;80;20962;-81
2020/12/07 02:05:59;;;;;;;19.85;6.58;;;;;;;-7.68;63.52;102747.15;1694320;83;22185;-80
2020/12/07 02:08:27;;;;;;;15.03;7.50;;;;;;;-7.66;63.54;102746.83;1703665;83;21566;-80
2020/12/07 02:11:06;;;;;;;8.90;5.30;;;;;;;-7.68;63.50;102742.92;1689893;83;21034;-80
2020/12/07 02:13:36;;;;;;;10.82;7.15;;;;;;;-7.73;63.55;102747.80;1687376;84;21092;-78
2020/12/07 02:16:04;;;;;;;16.65;7.40;;;;;;;-7.76;63.58;102747.66;1699522;82;21014;-77
2020/12/07 02:18:34;;;;;;;18.55;6.83;;;;;;;-7.78;63.77;102752.17;1705090;82;21161;-79
2020/12/07 02:21:03;;;;;;;14.43;7.50;;;;;;;-7.83;63.91;102740.89;1727765;80;20974;-80
2020/12/07 02:23:35;;;;;;;15.93;7.70;;;;;;;-7.86;64.03;102735.25;1708200;81;21194;-79
2020/12/07 02:26:05;;;;;;;21.82;8.00;;;;;;;-7.88;64.07;102740.66;1680492;83;21046;-79
2020/12/07 02:28:34;;;;;;;18.65;8.08;;;;;;;-7.88;64.17;102732.16;1685028;82;21614;-80
2020/12/07 02:31:02;;;;;;;20.70;7.85;;;;;;;-7.89;63.94;102745.67;1715013;82;21003;-80
2020/12/07 02:33:32;;;;;;;15.83;6.97;;;;;;;-7.92;64.02;102736.21;1714169;81;20955;-79
2020/12/07 02:36:00;;;;;;;14.28;6.42;;;;;;;-7.92;64.16;102726.89;1724577;82;20974;-79
2020/12/07 02:38:28;;;;;;;13.20;7.65;;;;;;;-7.88;64.23;102739.39;1724459;82;20974;-79
2020/12/07 02:40:56;;;;;;;16.97;8.58;;;;;;;-7.85;64.17;102744.63;1717834;83;21674;-79
2020/12/07 02:43:24;;;;;;;11.28;6.45;;;;;;;-7.85;64.16;102743.34;1720903;82;21174;-78
2020/12/07 02:45:53;;;;;;;14.70;7.08;;;;;;;-7.83;64.24;102748.53;1690646;81;21053;-80
2020/12/07 02:48:20;;;;;;;9.35;5.35;;;;;;;-7.85;64.29;102756.48;1699607;83;21045;-80
2020/12/07 02:50:52;;;;;;;12.10;6.72;;;;;;;-7.91;64.35;102755.80;1712973;81;21002;-76
2020/12/07 02:53:21;;;;;;;13.28;5.70;;;;;;;-7.96;64.28;102740.67;1790636;79;20984;-75
2020/12/07 02:55:49;;;;;;;16.05;7.28;;;;;;;-7.99;64.44;102746.48;1790365;79;21240;-74
2020/12/07 02:58:17;;;;;;;11.50;5.62;;;;;;;-8.01;64.50;102739.17;1788259;79;21562;-76
2020/12/07 03:00:47;;;;;;;16.60;7.67;;;;;;;-7.98;64.66;102740.98;1785894;78;20945;-76
2020/12/07 03:03:17;;;;;;;11.43;6.33;;;;;;;-7.96;64.58;102740.67;1745189;80;20964;-74
2020/12/07 03:05:46;;;;;;;13.80;6.87;;;;;;;-7.98;64.66;102744.81;1780745;78;21150;-75
2020/12/07 03:08:16;;;;;;;12.98;6.75;;;;;;;-8.01;64.65;102739.17;1786051;78;20962;-76
2020/12/07 03:10:45;;;;;;;10.85;7.03;;;;;;;-8.01;64.74;102731.53;1839967;77;20965;-76
2020/12/07 03:13:14;;;;;;;14.87;7.28;;;;;;;-7.97;64.78;102744.89;1777641;78;20997;-76
2020/12/07 03:15:43;;;;;;;10.70;6.30;;;;;;;-7.92;64.55;102751.48;1780768;78;20926;-76
2020/12/07 03:18:12;;;;;;;14.58;7.10;;;;;;;-7.92;64.42;102754.03;1777673;79;21462;-76
2020/12/07 03:20:44;;;;;;;13.08;6.22;;;;;;;-7.95;64.42;102760.26;1783989;78;21218;-78
2020/12/07 03:23:12;;;;;;;11.65;5.78;;;;;;;-7.97;64.54;102750.39;1782559;78;21036;-76
2020/12/07 03:25:41;;;;;;;11.65;6.12;;;;;;;-7.99;64.67;102763.03;1785147;79;20996;-78
2020/12/07 03:28:09;;;;;;;10.32;6.30;;;;;;;-7.99;64.54;102769.81;1781744;79;21005;-77
2020/12/07 03:30:37;;;;;;;12.05;5.92;;;;;;;-7.98;64.58;102757.53;1798083;78;20905;-76
2020/12/07 03:33:06;;;;;;;12.75;6.75;;;;;;;-7.94;64.66;102776.00;1756414;79;21132;-77
2020/12/07 03:35:36;;;;;;;8.95;5.20;;;;;;;-7.97;64.57;102760.17;1785402;79;21368;-75
2020/12/07 03:38:06;;;;;;;17.42;7.65;;;;;;;-7.95;64.73;102780.62;1785218;79;20974;-77
2020/12/07 03:40:34;;;;;;;10.32;5.37;;;;;;;-7.95;64.64;102775.53;1781629;79;21380;-76
2020/12/07 03:43:04;;;;;;;14.83;6.35;;;;;;;-7.94;64.64;102779.81;1777370;78;20937;-77
2020/12/07 03:45:36;;;;;;;11.90;7.15;;;;;;;-7.96;64.45;102773.77;1779516;78;22168;-75
2020/12/07 03:48:05;;;;;;;16.40;6.97;;;;;;;-7.97;64.71;102774.58;1773180;79;20906;-78
2020/12/07 03:50:33;;;;;;;13.50;5.67;;;;;;;-7.94;64.71;102777.27;1781985;79;21048;-76
2020/12/07 03:53:07;;;;;;;14.03;6.45;;;;;;;-7.87;64.55;102775.91;1785933;79;20992;31
2020/12/07 03:55:35;;;;;;;17.27;6.72;;;;;;;-7.86;64.51;102774.72;1652687;84;20989;-76
2020/12/07 03:58:05;;;;;;;20.80;7.70;;;;;;;-7.86;64.40;102763.67;1714091;82;21261;-76
2020/12/07 04:00:33;;;;;;;20.20;6.95;;;;;;;-7.86;64.37;102773.45;1713344;82;20977;-77
2020/12/07 04:03:05;;;;;;;12.45;6.67;;;;;;;-7.86;64.35;102776.40;1740863;82;21006;-76
2020/12/07 04:05:38;;;;;;;15.93;6.67;;;;;;;-7.85;64.27;102764.99;1740302;82;20930;-77
2020/12/07 04:08:05;;;;;;;16.07;7.37;;;;;;;-7.86;64.26;102770.90;1711806;82;21004;-77
2020/12/07 04:10:38;;;;;;;15.50;7.42;;;;;;;-7.88;64.38;102761.44;1706876;82;21180;-76
2020/12/07 04:13:06;;;;;;;18.35;7.83;;;;;;;-7.86;64.42;102767.48;1714811;82;21032;-76
2020/12/07 04:15:34;;;;;;;22.20;8.65;;;;;;;-7.84;64.41;102763.34;1707073;82;21085;-76
2020/12/07 04:18:02;;;;;;;14.00;6.90;;;;;;;-7.81;64.35;102767.31;1714243;82;20918;-78
2020/12/07 04:22:15;;;;;;;12.45;6.78;;;;;;;-7.74;64.13;102759.17;1844808;76;22669;-77
2020/12/07 04:24:43;;;;;;;10.98;5.22;;;;;;;-7.82;64.20;102752.84;1786743;79;21399;-78
2020/12/07 04:27:12;;;;;;;9.68;6.35;;;;;;;-7.82;64.26;102756.25;1818881;77;21647;-78
2020/12/07 04:29:40;;;;;;;10.55;6.22;;;;;;;-7.83;64.21;102745.58;1786492;79;21059;-77
2020/12/07 04:32:08;;;;;;;11.30;6.35;;;;;;;-7.87;64.12;102752.98;1790103;78;20915;-78
2020/12/07 04:34:36;;;;;;;11.03;5.40;;;;;;;-7.92;64.25;102748.53;1786572;77;21475;-77
2020/12/07 04:37:04;;;;;;;13.13;7.42;;;;;;;-7.93;64.29;102741.71;1790252;78;21488;-77
2020/12/07 04:39:32;;;;;;;10.30;5.75;;;;;;;-7.93;64.33;102749.34;1786866;79;22133;-77
2020/12/07 04:42:02;;;;;;;12.47;5.78;;;;;;;-7.94;64.33;102737.80;1790061;78;20935;-78
2020/12/07 04:44:30;;;;;;;10.90;6.55;;;;;;;-8.00;64.40;102734.57;1786676;79;20957;-79
2020/12/07 04:46:59;;;;;;;16.07;7.40;;;;;;;-8.02;64.52;102732.34;1792514;77;20934;-77
2020/12/07 04:49:28;;;;;;;14.60;6.62;;;;;;;-8.00;64.51;102728.20;1786693;79;20948;-78
2020/12/07 04:51:59;;;;;;;9.03;5.28;;;;;;;-7.97;64.51;102742.34;1790376;78;21179;-76
2020/12/07 04:54:28;;;;;;;9.48;6.28;;;;;;;-7.95;64.46;102732.25;1786585;79;20950;-80
2020/12/07 04:56:57;;;;;;;14.47;6.55;;;;;;;-7.95;64.36;102730.58;1809818;78;20943;-79
2020/12/07 04:59:25;;;;;;;13.13;6.42;;;;;;;-7.97;64.39;102716.89;1782623;79;21489;-79
2020/12/07 05:01:53;;;;;;;11.83;6.05;;;;;;;-7.96;64.33;102717.38;1776825;78;21618;-80
2020/12/07 05:04:22;;;;;;;11.30;6.00;;;;;;;-7.94;64.22;102728.89;1782260;79;21734;-77
2020/12/07 05:07:09;;;;;;;15.55;6.80;;;;;;;-7.97;63.96;102729.62;1788332;78;21529;-77
2020/12/07 05:09:38;;;;;;;17.37;7.95;;;;;;;-8.00;64.05;102748.98;1782747;79;21434;-76
2020/12/07 05:12:13;;;;;;;13.25;7.03;;;;;;;-8.03;63.97;102750.08;1791263;78;20975;-80
2020/12/07 05:14:37;;;;;;;12.23;6.17;;;;;;;-8.04;64.02;102755.57;1879174;76;21472;-78
2020/12/07 05:17:05;;;;;;;18.17;7.12;;;;;;;-8.05;63.98;102747.84;1782443;79;22162;-78
2020/12/07 05:19:33;;;;;;;16.15;7.58;;;;;;;-8.06;64.06;102757.57;1791147;78;21010;-77
2020/12/07 05:22:02;;;;;;;13.55;6.70;;;;;;;-8.07;64.10;102755.80;1782352;79;21388;-77
2020/12/07 05:24:30;;;;;;;12.28;6.72;;;;;;;-8.05;64.09;102760.58;1791182;78;20934;-79
2020/12/07 05:26:58;;;;;;;15.03;6.17;;;;;;;-8.02;64.09;102754.39;1782544;79;20934;-78
2020/12/07 05:29:33;;;;;;;16.77;7.28;;;;;;;-7.98;63.91;102744.81;1788307;78;21893;-75
2020/12/07 05:31:59;;;;;;;9.15;4.70;;;;;;;-7.98;63.79;102737.17;1782110;79;21128;-78
2020/12/07 05:34:27;;;;;;;16.77;6.40;;;;;;;-8.00;63.76;102734.57;1790611;78;20938;-80
2020/12/07 05:36:56;;;;;;;14.33;6.22;;;;;;;-8.01;63.90;102721.34;1781853;79;20998;-79
2020/12/07 05:39:25;;;;;;;14.07;7.70;;;;;;;-7.97;63.71;102737.66;1790640;78;21329;-76
2020/12/07 05:41:55;;;;;;;16.42;7.85;;;;;;;-7.97;63.58;102725.80;1781872;79;21706;-76
2020/12/07 05:44:22;;;;;;;19.73;7.87;;;;;;;-7.95;63.60;102738.21;1782507;78;21139;-76
2020/12/07 05:46:53;;;;;;;15.25;7.50;;;;;;;-7.96;63.31;102738.13;1787755;78;20955;-76
2020/12/07 05:49:20;;;;;;;17.00;7.15;;;;;;;-7.95;63.31;102738.21;1752042;79;21402;-76
2020/12/07 05:51:59;;;;;;;9.33;6.22;;;;;;;-7.88;63.20;102744.89;1756272;79;20979;-76
2020/12/07 05:54:27;;;;;;;11.22;5.80;;;;;;;-7.86;62.96;102733.98;1790579;78;21218;-76
2020/12/07 05:56:56;;;;;;;14.87;7.20;;;;;;;-7.86;62.99;102739.07;1759179;78;21037;-76
2020/12/07 05:59:45;;;;;;;20.72;7.10;;;;;;;-7.84;62.96;102746.80;1798853;77;21020;-76
2020/12/07 06:02:16;;;;;;;12.95;6.10;;;;;;;-7.83;62.97;102748.53;1711896;81;20975;-81
2020/12/07 06:04:45;;;;;;;17.02;8.03;;;;;;;-7.82;62.78;102746.48;1772029;79;20918;-83
2020/12/07 06:07:13;;;;;;;18.67;6.75;;;;;;;-7.82;62.81;102750.30;1747024;79;20954;-83
2020/12/07 06:09:41;;;;;;;22.02;6.28;;;;;;;-7.80;62.98;102742.30;1747020;79;21013;-86
2020/12/07 06:12:18;;;;;;;20.72;6.67;;;;;;;-7.75;62.78;102737.92;1772079;79;20993;-83
2020/12/07 06:14:47;;;;;;;16.62;6.53;;;;;;;-7.71;62.54;102759.34;1772088;79;21625;-84
2020/12/07 06:17:25;;;;;;;16.52;6.90;;;;;;;-7.71;62.57;102746.61;1771696;79;21613;-82
2020/12/07 06:19:55;;;;;;;14.15;6.55;;;;;;;-7.69;62.54;102751.38;1774213;79;20965;-84
2020/12/07 06:22:24;;;;;;;18.60;6.33;;;;;;;-7.67;62.52;102766.30;1772554;79;21395;-85
2020/12/07 06:24:56;;;;;;;9.05;5.05;;;;;;;-7.65;62.47;102751.98;1772158;79;21478;-86
2020/12/07 06:27:23;;;;;;;21.57;7.53;;;;;;;-7.67;62.54;102750.16;1772107;79;21495;-87
2020/12/07 06:30:03;;;;;;;10.82;6.08;;;;;;;-7.68;62.59;102748.02;1747049;79;21048;-89
2020/12/07 06:32:53;;;;;;;11.43;6.62;;;;;;;-7.63;62.66;102743.14;1771923;79;21722;-83
2020/12/07 06:35:21;;;;;;;26.05;9.45;;;;;;;-7.62;62.57;102738.14;1772021;79;21582;-86
2020/12/07 06:37:50;;;;;;;23.52;11.22;;;;;;;-7.60;62.38;102735.27;1773011;79;20973;-85
2020/12/07 06:40:24;;;;;;;26.33;11.05;;;;;;;-7.56;62.45;102745.19;1774995;79;21265;-84
2020/12/07 06:42:52;;;;;;;20.60;9.70;;;;;;;-7.54;62.46;102748.69;1801671;79;20985;-84
2020/12/07 06:45:30;;;;;;;15.08;7.55;;;;;;;-7.51;62.13;102743.75;1773270;79;21612;-83
2020/12/07 06:48:09;;;;;;;21.68;9.30;;;;;;;-7.47;62.28;102744.34;1749593;79;20981;-87
2020/12/07 06:50:40;;;;;;;25.62;12.15;;;;;;;-7.40;62.20;102748.06;1771873;79;21696;-85
2020/12/07 06:53:36;;;;;;;29.63;11.50;;;;;;;-7.30;61.78;102743.89;1798092;79;21517;-85
2020/12/07 06:55:51;;;;;;;26.42;10.30;;;;;;;-7.23;61.67;102737.00;1772242;79;21013;-87
2020/12/07 06:58:37;;;;;;;26.75;11.75;;;;;;;-7.15;61.61;102736.11;1799607;79;21037;-86
2020/12/07 07:01:17;;;;;;;28.95;10.40;;;;;;;-7.12;61.33;102738.37;1781405;78;20974;-84
2020/12/07 07:03:49;;;;;;;29.25;10.53;;;;;;;-7.11;61.26;102729.95;1698800;80;21386;-76
2020/12/07 07:06:22;;;;;;;18.65;8.73;;;;;;;-7.05;61.40;102728.47;1715442;82;21636;-75
2020/12/07 07:08:54;;;;;;;23.05;7.33;;;;;;;-6.95;61.16;102725.56;1715406;82;20948;-77
2020/12/07 07:11:21;;;;;;;21.33;7.55;;;;;;;-6.85;60.95;102726.43;1755273;81;21162;-78
2020/12/07 07:13:50;;;;;;;16.97;7.53;;;;;;;-6.75;60.66;102721.36;1691796;82;21517;-76
2020/12/07 07:16:18;;;;;;;16.67;8.10;;;;;;;-6.69;60.48;102721.64;1755135;80;20984;-77
2020/12/07 07:18:47;;;;;;;19.50;7.17;;;;;;;-6.60;60.29;102723.70;1715362;82;21018;-77
2020/12/07 07:21:16;;;;;;;18.00;8.33;;;;;;;-6.53;60.02;102725.33;1715329;82;21592;-75
2020/12/07 07:23:44;;;;;;;22.02;10.05;;;;;;;-6.47;59.72;102729.81;1715336;82;21166;-77
2020/12/07 07:26:22;;;;;;;20.95;8.78;;;;;;;-6.47;59.68;102719.23;1669263;82;21395;-77
2020/12/07 07:28:49;;;;;;;26.65;11.93;;;;;;;-6.46;59.13;102727.75;1715453;82;20975;-75
2020/12/07 07:31:19;;;;;;;17.65;7.92;;;;;;;-6.47;59.28;102722.16;1728891;81;21035;-78
2020/12/07 07:33:47;;;;;;;20.37;8.05;;;;;;;-6.50;59.24;102721.63;1693032;81;21027;-78
2020/12/07 07:36:25;;;;;;;20.75;9.25;;;;;;;-6.48;58.99;102726.40;1728880;81;21183;-79
2020/12/07 07:38:54;;;;;;;18.75;9.28;;;;;;;-6.48;59.09;102716.60;1728870;81;21086;-78
2020/12/07 07:41:23;;;;;;;22.42;8.73;;;;;;;-6.43;59.23;102727.01;1729474;82;20952;-76
2020/12/07 07:43:52;;;;;;;28.23;9.55;;;;;;;-6.41;58.78;102709.67;1731867;82;20980;-75
2020/12/07 07:46:21;;;;;;;19.32;8.83;;;;;;;-6.37;58.44;102739.64;1731768;82;20932;-77
2020/12/07 07:49:15;;;;;;;17.37;8.38;;;;;;;-6.35;58.40;102706.53;1755341;81;21011;-78
2020/12/07 07:54:39;;;;;;;16.12;8.58;;;;;;;-6.31;58.30;102705.45;1710709;82;20948;-76
2020/12/07 08:08:19;;;;;;;23.47;8.85;;;;;;;-5.95;57.37;102692.89;1741270;78;20991;-85
2020/12/07 08:18:07;;;;;;;18.40;8.95;;;;;;;-5.65;56.71;102698.33;1812735;77;21436;-83
2020/12/07 08:20:38;;;;;;;16.35;8.38;;;;;;;-5.57;56.42;102671.81;1811719;77;20943;-86
2020/12/07 08:23:06;;;;;;;26.73;10.03;;;;;;;-5.51;56.48;102664.39;1811536;77;21053;-86
2020/12/07 08:25:51;;;;;;;25.72;11.12;;;;;;;-5.41;56.08;102677.56;1785934;77;21041;-83
2020/12/07 08:28:33;;;;;;;20.48;10.63;;;;;;;-5.36;55.68;102664.95;1811341;77;21955;-82
2020/12/07 08:31:13;;;;;;;23.27;9.83;;;;;;;-5.32;55.55;102655.73;1811137;77;21117;-82
2020/12/07 08:34:00;;;;;;;29.52;10.48;;;;;;;-5.29;55.32;102641.77;1811350;77;21516;-77
2020/12/07 08:36:33;;;;;;;19.95;9.28;;;;;;;-5.24;55.49;102645.40;1811224;77;20948;-77
2020/12/07 08:39:01;;;;;;;20.05;10.53;;;;;;;-5.14;55.43;102644.91;1811164;77;20931;-74
2020/12/07 08:41:35;;;;;;;18.52;8.40;;;;;;;-5.06;55.21;102638.41;1811256;77;20967;-89
2020/12/07 08:44:12;;;;;;;20.30;8.53;;;;;;;-4.98;54.78;102639.95;1812976;77;21424;-91
2020/12/07 08:46:46;;;;;;;20.72;8.40;;;;;;;-4.93;54.79;102609.03;1812770;77;21061;-90
2020/12/07 08:49:19;;;;;;;23.83;10.93;;;;;;;-4.86;54.00;102643.37;1812734;77;20990;-86
2020/12/07 08:51:47;;;;;;;26.55;10.28;;;;;;;-4.84;54.09;102636.22;1812904;77;20979;-85
2020/12/07 08:54:15;;;;;;;26.48;9.98;;;;;;;-4.81;54.14;102628.64;1812820;77;21343;-87
2020/12/07 08:56:43;;;;;;;19.27;9.00;;;;;;;-4.77;53.83;102639.87;1813597;77;20911;-84
2020/12/07 08:59:16;;;;;;;30.55;9.25;;;;;;;-4.70;53.64;102619.20;1815006;77;20931;-86
2020/12/07 09:01:49;;;;;;;16.10;8.50;;;;;;;-4.62;53.60;102620.35;1814939;77;20999;-86
2020/12/07 09:04:17;;;;;;;24.18;8.50;;;;;;;-4.54;53.14;102630.84;1814840;77;21010;-87
2020/12/07 09:06:48;;;;;;;16.50;7.33;;;;;;;-4.47;52.74;102618.70;1815113;77;21434;-87
2020/12/07 09:09:19;;;;;;;19.42;7.72;;;;;;;-4.36;52.82;102619.94;1820178;74;21598;31
2020/12/07 09:11:47;;;;;;;26.02;8.63;;;;;;;-4.24;52.28;102613.09;1628513;86;20999;-82
2020/12/07 09:14:15;;;;;;;23.07;9.00;;;;;;;-4.15;52.11;102608.69;1723992;82;21054;-84
2020/12/07 09:16:43;;;;;;;24.37;9.15;;;;;;;-4.07;51.95;102623.88;1676058;84;20931;-82
2020/12/07 09:19:10;;;;;;;21.25;9.80;;;;;;;-3.99;51.79;102606.66;1676173;83;21193;-82
2020/12/07 09:21:38;;;;;;;17.17;7.20;;;;;;;-3.83;51.46;102610.56;1676007;84;20994;-80
2020/12/07 09:24:07;;;;;;;17.98;8.95;;;;;;;-3.72;51.14;102608.34;1675914;84;21412;-80
2020/12/07 09:26:34;;;;;;;19.10;8.68;;;;;;;-3.63;50.71;102591.95;1675772;83;20975;-83
2020/12/07 09:29:02;;;;;;;21.65;8.18;;;;;;;-3.51;50.23;102591.48;1675976;84;21411;-82
2020/12/07 09:31:31;;;;;;;12.70;6.22;;;;;;;-3.43;49.92;102595.12;1676167;84;21118;-84
2020/12/07 09:33:58;;;;;;;22.27;8.20;;;;;;;-3.40;49.47;102613.19;1676200;84;21030;-85
2020/12/07 09:36:27;;;;;;;19.73;8.65;;;;;;;-3.45;49.15;102607.02;1676863;84;20987;-83
2020/12/07 09:39:03;;;;;;;15.32;7.47;;;;;;;-3.46;49.57;102591.61;1676261;84;21105;-82
2020/12/07 09:41:33;;;;;;;18.90;8.03;;;;;;;-3.39;49.54;102594.39;1675907;83;21077;-83
2020/12/07 09:44:01;;;;;;;16.87;8.50;;;;;;;-3.26;49.49;102585.78;1676259;84;21002;-88
2020/12/07 09:46:30;;;;;;;25.72;9.55;;;;;;;-3.20;48.64;102584.65;1675872;84;21062;-85
2020/12/07 09:48:59;;;;;;;33.10;11.40;;;;;;;-3.16;48.80;102580.96;1675905;84;20966;-84
2020/12/07 09:51:27;;;;;;;31.95;9.45;;;;;;;-3.12;48.76;102582.76;1723977;82;20944;-82
2020/12/07 09:53:55;;;;;;;21.57;9.58;;;;;;;-3.05;48.53;102582.52;1675864;84;20975;-84
2020/12/07 09:56:25;;;;;;;19.55;8.05;;;;;;;-3.00;47.91;102599.33;1675986;84;22233;-81
2020/12/07 09:58:53;;;;;;;19.17;8.98;;;;;;;-2.99;47.92;102553.60;1654595;84;20970;-85
2020/12/07 10:01:21;;;;;;;12.47;8.60;;;;;;;-2.99;47.80;102585.27;1676292;83;21042;-83
2020/12/07 10:03:49;;;;;;;22.82;8.93;;;;;;;-2.99;48.04;102585.27;1675599;84;21034;-76
2020/12/07 10:06:17;;;;;;;16.45;8.53;;;;;;;-2.95;48.24;102581.09;1675741;84;21531;-76
2020/12/07 10:08:46;;;;;;;22.35;9.63;;;;;;;-2.82;48.41;102591.29;1675692;83;21140;-78
2020/12/07 10:11:14;;;;;;;20.35;8.50;;;;;;;-2.69;47.83;102576.67;1691577;83;20976;-77
2020/12/07 10:13:42;;;;;;;20.92;8.95;;;;;;;-2.55;47.68;102579.59;1712532;82;20981;-79
2020/12/07 10:16:10;;;;;;;18.80;7.15;;;;;;;-2.57;47.01;102570.55;1699211;83;21509;-80
2020/12/07 10:18:40;;;;;;;13.50;8.13;;;;;;;-2.64;47.25;102580.22;1712606;82;21050;-81
2020/12/07 10:21:08;;;;;;;20.45;8.28;;;;;;;-2.68;47.27;102571.11;1698933;81;21188;-79
2020/12/07 10:23:37;;;;;;;18.80;8.70;;;;;;;-2.68;47.50;102555.70;1748183;80;20984;-81
2020/12/07 10:26:05;;;;;;;19.70;8.43;;;;;;;-2.66;47.35;102554.05;1748161;80;20929;-82
2020/12/07 10:28:32;;;;;;;21.60;9.73;;;;;;;-2.63;47.30;102555.40;1748261;80;20940;-79
2020/12/07 10:31:01;;;;;;;20.30;8.28;;;;;;;-2.66;47.23;102552.34;1748289;80;20944;-79
2020/12/07 10:33:30;;;;;;;17.48;8.65;;;;;;;-2.65;47.34;102545.50;1712558;83;22117;-78
2020/12/07 10:35:58;;;;;;;24.75;7.90;;;;;;;-2.65;47.16;102557.92;1698882;83;21059;-79
2020/12/07 10:38:26;;;;;;;17.05;7.78;;;;;;;-2.65;47.34;102547.64;1748357;80;20965;-79
2020/12/07 10:40:54;;;;;;;17.30;6.55;;;;;;;-2.62;47.09;102536.19;1712493;83;20979;-80
2020/12/07 10:43:22;;;;;;;15.95;8.48;;;;;;;-2.60;46.90;102554.18;1698934;81;20997;-79
2020/12/07 10:45:50;;;;;;;18.77;8.20;;;;;;;-2.62;46.98;102549.45;1748196;80;21378;-78
2020/12/07 10:48:18;;;;;;;25.12;9.03;;;;;;;-2.62;47.21;102530.19;1712471;82;21029;-81
2020/12/07 10:50:46;;;;;;;14.73;8.13;;;;;;;-2.58;47.26;102538.40;1699044;81;20992;-81
2020/12/07 10:53:15;;;;;;;21.57;8.65;;;;;;;-2.54;47.30;102535.08;1748130;81;20953;-79
2020/12/07 10:55:43;;;;;;;19.05;8.05;;;;;;;-2.44;47.22;102540.05;1748226;80;20956;-77
2020/12/07 10:58:11;;;;;;;17.23;7.37;;;;;;;-2.41;46.86;102542.26;1712565;83;21250;-78
2020/12/07 11:00:39;;;;;;;15.95;9.15;;;;;;;-2.41;46.72;102547.39;1699547;82;21052;-80
2020/12/07 11:03:08;;;;;;;18.80;7.70;;;;;;;-2.45;47.15;102548.14;1712387;82;21081;-80
2020/12/07 11:05:39;;;;;;;24.25;9.45;;;;;;;-2.46;47.05;102547.71;1696462;83;21063;-82
2020/12/07 11:09:29;;;;;;;18.48;8.50;;;;;;;-2.43;47.27;102550.34;1712609;82;21121;-79
2020/12/07 11:10:43;;;;;;;21.35;8.50;;;;;;;-2.39;47.19;102535.46;1657940;82;21428;-80
2020/12/07 11:13:24;;;;;;;16.50;8.20;;;;;;;-2.36;47.20;102541.95;1742474;81;21033;-82
2020/12/07 11:15:43;;;;;;;18.55;8.45;;;;;;;-2.32;47.21;102545.47;1744529;80;21604;-81
2020/12/07 11:18:17;;;;;;;15.85;8.25;;;;;;;-2.33;47.11;102542.05;1761504;76;21013;-79
2020/12/07 11:20:46;;;;;;;16.77;7.80;;;;;;;-2.35;47.15;102543.70;1720590;82;20951;-81
2020/12/07 11:23:14;;;;;;;13.43;7.97;;;;;;;-2.31;47.08;102542.95;1721286;82;21944;-78
2020/12/07 11:25:45;;;;;;;21.68;9.25;;;;;;;-2.33;47.03;102541.18;1739024;79;21041;-79
2020/12/07 11:28:14;;;;;;;11.73;6.37;;;;;;;-2.32;47.08;102549.33;1740029;81;21028;-78
2020/12/07 11:30:43;;;;;;;15.53;7.25;;;;;;;-2.32;46.98;102557.89;1738927;81;20945;-78
2020/12/07 11:33:11;;;;;;;21.62;8.20;;;;;;;-2.35;47.04;102538.98;1738919;81;20973;-77
2020/12/07 11:35:41;;;;;;;25.43;9.85;;;;;;;-2.40;47.30;102543.13;1715567;81;20997;-75
2020/12/07 11:38:16;;;;;;;24.67;9.53;;;;;;;-2.41;47.44;102538.83;1738777;79;21013;-73
2020/12/07 11:43:18;;;;;;;21.48;10.50;;;;;;;-2.40;47.48;102541.84;1764314;81;21225;-75
2020/12/07 11:45:44;;;;;;;22.95;9.30;;;;;;;-2.42;47.55;102542.21;1739208;81;21076;-75
2020/12/07 11:48:12;;;;;;;19.30;7.47;;;;;;;-2.40;47.68;102526.42;1738875;81;21036;-74
2020/12/07 11:50:40;;;;;;;20.12;9.30;;;;;;;-2.42;47.69;102536.69;1738896;81;21033;-74
2020/12/07 11:53:08;;;;;;;16.25;8.73;;;;;;;-2.33;47.62;102551.45;1739109;81;20978;-76
2020/12/07 11:55:36;;;;;;;21.52;9.90;;;;;;;-2.30;47.41;102533.11;1739000;81;20966;-75